sensor_id;sensor_type;location;lat;lon;timestamp;pressure;altitude;pressure_sealevel;temperature;humidity
63715;BME280;49858;48.956;9.076;2023-02-19T00:01:41;99404.09;;;8.18;100.00
63715;BME280;49858;48.956;9.076;2023-02-19T00:04:12;99394.91;;;8.31;100.00
63715;BME280;49858;48.956;9.076;2023-02-19T00:06:41;99383.16;;;8.48;100.00
63715;BME280;49858;48.956;9.076;2023-02-19T00:09:09;99382.66;;;8.37;100.00
63715;BME280;49858;48.956;9.076;2023-02-19T00:11:37;99380.22;;;8.36;100.00
63715;BME280;49858;48.956;9.076;2023-02-19T00:14:05;99387.47;;;8.32;100.00
63715;BME280;49858;48.956;9.076;2023-02-19T00:16:36;99389.41;;;8.31;100.00
63715;BME280;49858;48.956;9.076;2023-02-19T00:19:06;99394.28;;;8.26;100.00
63715;BME280;49858;48.956;9.076;2023-02-19T00:21:35;99387.19;;;8.33;100.00
63715;BME280;49858;48.956;9.076;2023-02-19T00:24:05;99394.44;;;8.29;100.00
63715;BME280;49858;48.956;9.076;2023-02-19T00:26:34;99401.69;;;8.25;100.00
63715;BME280;49858;48.956;9.076;2023-02-19T00:29:05;99397.19;;;8.12;100.00
63715;BME280;49858;48.956;9.076;2023-02-19T00:31:34;99406.69;;;8.23;100.00
63715;BME280;49858;48.956;9.076;2023-02-19T00:34:04;99399.28;;;8.15;100.00
63715;BME280;49858;48.956;9.076;2023-02-19T00:36:33;99401.19;;;8.23;100.00
63715;BME280;49858;48.956;9.076;2023-02-19T00:39:03;99390.56;;;8.22;100.00
63715;BME280;49858;48.956;9.076;2023-02-19T00:41:31;99392.84;;;8.19;100.00
63715;BME280;49858;48.956;9.076;2023-02-19T00:44:00;99389.13;;;8.15;100.00
63715;BME280;49858;48.956;9.076;2023-02-19T00:46:29;99375.28;;;8.38;100.00
63715;BME280;49858;48.956;9.076;2023-02-19T00:48:58;99376.38;;;8.02;100.00
63715;BME280;49858;48.956;9.076;2023-02-19T00:51:28;99381.88;;;8.11;100.00
63715;BME280;49858;48.956;9.076;2023-02-19T00:53:56;99369.59;;;8.17;100.00
63715;BME280;49858;48.956;9.076;2023-02-19T00:56:26;99373.31;;;8.21;100.00
63715;BME280;49858;48.956;9.076;2023-02-19T00:58:54;99374.59;;;8.32;100.00
63715;BME280;49858;48.956;9.076;2023-02-19T01:01:25;99364.13;;;8.26;100.00
63715;BME280;49858;48.956;9.076;2023-02-19T01:03:53;99360.41;;;8.13;100.00
63715;BME280;49858;48.956;9.076;2023-02-19T01:06:21;99363.97;;;8.22;100.00
63715;BME280;49858;48.956;9.076;2023-02-19T01:08:49;99358.97;;;8.24;100.00
63715;BME280;49858;48.956;9.076;2023-02-19T01:11:17;99351.84;;;8.23;100.00
63715;BME280;49858;48.956;9.076;2023-02-19T01:13:47;99342.72;;;8.10;100.00
63715;BME280;49858;48.956;9.076;2023-02-19T01:16:16;99352.38;;;8.08;100.00
63715;BME280;49858;48.956;9.076;2023-02-19T01:18:45;99358.81;;;8.12;100.00
63715;BME280;49858;48.956;9.076;2023-02-19T01:21:15;99364.47;;;8.15;100.00
63715;BME280;49858;48.956;9.076;2023-02-19T01:23:44;99363.50;;;8.20;100.00
63715;BME280;49858;48.956;9.076;2023-02-19T01:26:14;99364.13;;;8.17;100.00
63715;BME280;49858;48.956;9.076;2023-02-19T01:28:42;99357.53;;;8.09;100.00
63715;BME280;49858;48.956;9.076;2023-02-19T01:31:13;99364.47;;;8.24;100.00
63715;BME280;49858;48.956;9.076;2023-02-19T01:33:43;99358.97;;;8.33;100.00
63715;BME280;49858;48.956;9.076;2023-02-19T01:36:13;99347.84;;;8.29;100.00
63715;BME280;49858;48.956;9.076;2023-02-19T01:38:41;99358.97;;;8.07;100.00
63715;BME280;49858;48.956;9.076;2023-02-19T01:41:10;99358.00;;;8.20;100.00
63715;BME280;49858;48.956;9.076;2023-02-19T01:43:57;99355.75;;;8.13;100.00
63715;BME280;49858;48.956;9.076;2023-02-19T01:46:28;99349.47;;;8.13;100.00
63715;BME280;49858;48.956;9.076;2023-02-19T01:48:57;99345.28;;;8.07;100.00
63715;BME280;49858;48.956;9.076;2023-02-19T01:51:29;99346.41;;;8.06;100.00
63715;BME280;49858;48.956;9.076;2023-02-19T01:54:01;99345.28;;;8.07;100.00
63715;BME280;49858;48.956;9.076;2023-02-19T01:56:31;99351.91;;;7.97;100.00
63715;BME280;49858;48.956;9.076;2023-02-19T01:59:02;99349.31;;;8.09;100.00
63715;BME280;49858;48.956;9.076;2023-02-19T02:01:31;99363.03;;;8.01;100.00
63715;BME280;49858;48.956;9.076;2023-02-19T02:03:59;99352.53;;;8.03;100.00
63715;BME280;49858;48.956;9.076;2023-02-19T02:06:29;99340.78;;;8.11;100.00
63715;BME280;49858;48.956;9.076;2023-02-19T02:08:58;99341.91;;;8.01;100.00
63715;BME280;49858;48.956;9.076;2023-02-19T02:11:46;99328.66;;;8.12;100.00
63715;BME280;49858;48.956;9.076;2023-02-19T02:14:16;99326.75;;;8.04;100.00
63715;BME280;49858;48.956;9.076;2023-02-19T02:16:54;99325.94;;;8.12;100.00
63715;BME280;49858;48.956;9.076;2023-02-19T02:20:00;99335.47;;;7.97;100.00
63715;BME280;49858;48.956;9.076;2023-02-19T02:22:32;99315.47;;;8.05;100.00
63715;BME280;49858;48.956;9.076;2023-02-19T02:25:32;99315.47;;;8.14;100.00
63715;BME280;49858;48.956;9.076;2023-02-19T02:28:17;99301.28;;;8.12;100.00
63715;BME280;49858;48.956;9.076;2023-02-19T02:30:52;99309.66;;;8.07;100.00
63715;BME280;49858;48.956;9.076;2023-02-19T02:33:28;99304.34;;;8.02;100.00
63715;BME280;49858;48.956;9.076;2023-02-19T02:36:02;99304.69;;;8.00;100.00
63715;BME280;49858;48.956;9.076;2023-02-19T02:38:37;99294.81;;;8.08;100.00
63715;BME280;49858;48.956;9.076;2023-02-19T02:41:05;99312.25;;;8.03;100.00
63715;BME280;49858;48.956;9.076;2023-02-19T02:43:34;99308.84;;;8.15;100.00
63715;BME280;49858;48.956;9.076;2023-02-19T02:46:09;99310.97;;;8.01;100.00
63715;BME280;49858;48.956;9.076;2023-02-19T02:48:39;99307.72;;;7.99;100.00
63715;BME280;49858;48.956;9.076;2023-02-19T02:51:15;99306.47;;;7.96;100.00
63715;BME280;49858;48.956;9.076;2023-02-19T02:53:52;99313.72;;;8.01;100.00
63715;BME280;49858;48.956;9.076;2023-02-19T02:56:42;99297.88;;;8.15;100.00
63715;BME280;49858;48.956;9.076;2023-02-19T02:59:15;99303.22;;;8.03;100.00
63715;BME280;49858;48.956;9.076;2023-02-19T03:01:49;99294.81;;;8.08;100.00
63715;BME280;49858;48.956;9.076;2023-02-19T03:04:43;99294.00;;;8.16;100.00
63715;BME280;49858;48.956;9.076;2023-02-19T03:07:32;99289.34;;;8.16;100.00
63715;BME280;49858;48.956;9.076;2023-02-19T03:10:05;99277.25;;;8.17;100.00
63715;BME280;49858;48.956;9.076;2023-02-19T03:12:34;99280.97;;;8.04;100.00
63715;BME280;49858;48.956;9.076;2023-02-19T03:15:24;99286.13;;;8.06;100.00
63715;BME280;49858;48.956;9.076;2023-02-19T03:18:13;99285.34;;;8.05;100.00
63715;BME280;49858;48.956;9.076;2023-02-19T03:21:03;99263.69;;;8.21;100.00
63715;BME280;49858;48.956;9.076;2023-02-19T03:23:37;99270.16;;;8.16;100.00
63715;BME280;49858;48.956;9.076;2023-02-19T03:26:23;99263.84;;;8.25;100.00
63715;BME280;49858;48.956;9.076;2023-02-19T03:28:54;99267.91;;;8.10;100.00
63715;BME280;49858;48.956;9.076;2023-02-19T03:31:43;99270.31;;;8.20;100.00
63715;BME280;49858;48.956;9.076;2023-02-19T03:34:16;99262.09;;;8.20;100.00
63715;BME280;49858;48.956;9.076;2023-02-19T03:36:53;99254.22;;;8.10;100.00
63715;BME280;49858;48.956;9.076;2023-02-19T03:39:23;99277.41;;;8.21;100.00
63715;BME280;49858;48.956;9.076;2023-02-19T03:41:58;99267.72;;;8.24;100.00
63715;BME280;49858;48.956;9.076;2023-02-19T03:44:36;99260.94;;;8.30;100.00
63715;BME280;49858;48.956;9.076;2023-02-19T03:47:13;99271.91;;;8.21;100.00
63715;BME280;49858;48.956;9.076;2023-02-19T03:49:44;99266.75;;;8.28;100.00
63715;BME280;49858;48.956;9.076;2023-02-19T03:52:20;99263.69;;;8.30;100.00
63715;BME280;49858;48.956;9.076;2023-02-19T03:54:55;99274.47;;;8.26;100.00
63715;BME280;49858;48.956;9.076;2023-02-19T03:57:32;99271.09;;;8.29;100.00
63715;BME280;49858;48.956;9.076;2023-02-19T04:00:09;99270.25;;;8.46;100.00
63715;BME280;49858;48.956;9.076;2023-02-19T04:02:41;99271.53;;;8.49;100.00
63715;BME280;49858;48.956;9.076;2023-02-19T04:05:13;99277.38;;;8.47;100.00
63715;BME280;49858;48.956;9.076;2023-02-19T04:07:45;99279.63;;;8.36;100.00
63715;BME280;49858;48.956;9.076;2023-02-19T04:10:20;99278.19;;;8.30;100.00
63715;BME280;49858;48.956;9.076;2023-02-19T04:12:54;99290.47;;;8.24;100.00
63715;BME280;49858;48.956;9.076;2023-02-19T04:15:26;99291.25;;;8.25;100.00
63715;BME280;49858;48.956;9.076;2023-02-19T04:17:57;99281.91;;;8.26;100.00
63715;BME280;49858;48.956;9.076;2023-02-19T04:20:30;99287.09;;;8.10;100.00
63715;BME280;49858;48.956;9.076;2023-02-19T04:23:00;99295.16;;;8.06;100.00
63715;BME280;49858;48.956;9.076;2023-02-19T04:25:29;99291.28;;;8.07;100.00
63715;BME280;49858;48.956;9.076;2023-02-19T04:27:58;99301.41;;;8.24;100.00
63715;BME280;49858;48.956;9.076;2023-02-19T04:30:26;99309.50;;;7.94;100.00
63715;BME280;49858;48.956;9.076;2023-02-19T04:32:54;99300.97;;;7.96;100.00
63715;BME280;49858;48.956;9.076;2023-02-19T04:35:22;99314.69;;;8.05;100.00
63715;BME280;49858;48.956;9.076;2023-02-19T04:37:51;99303.72;;;8.05;100.00
63715;BME280;49858;48.956;9.076;2023-02-19T04:40:19;99310.00;;;7.97;100.00
63715;BME280;49858;48.956;9.076;2023-02-19T04:42:47;99319.19;;;7.92;100.00
63715;BME280;49858;48.956;9.076;2023-02-19T04:45:17;99321.44;;;7.99;100.00
63715;BME280;49858;48.956;9.076;2023-02-19T04:47:45;99308.34;;;8.13;100.00
63715;BME280;49858;48.956;9.076;2023-02-19T04:50:13;99308.34;;;8.13;100.00
63715;BME280;49858;48.956;9.076;2023-02-19T04:52:40;99312.91;;;7.83;100.00
63715;BME280;49858;48.956;9.076;2023-02-19T04:55:10;99313.88;;;7.96;100.00
63715;BME280;49858;48.956;9.076;2023-02-19T04:57:37;99308.84;;;8.06;100.00
63715;BME280;49858;48.956;9.076;2023-02-19T05:00:07;99318.84;;;7.93;100.00
63715;BME280;49858;48.956;9.076;2023-02-19T05:02:35;99323.88;;;8.00;100.00
63715;BME280;49858;48.956;9.076;2023-02-19T05:05:03;99319.19;;;8.01;100.00
63715;BME280;49858;48.956;9.076;2023-02-19T05:07:31;99332.22;;;8.12;100.00
63715;BME280;49858;48.956;9.076;2023-02-19T05:10:00;99333.84;;;7.96;100.00
63715;BME280;49858;48.956;9.076;2023-02-19T05:12:30;99328.19;;;8.10;100.00
63715;BME280;49858;48.956;9.076;2023-02-19T05:14:57;99321.25;;;8.04;100.00
63715;BME280;49858;48.956;9.076;2023-02-19T05:17:26;99328.03;;;8.06;100.00
63715;BME280;49858;48.956;9.076;2023-02-19T05:19:53;99316.13;;;8.02;100.00
63715;BME280;49858;48.956;9.076;2023-02-19T05:22:21;99320.63;;;7.98;100.00
63715;BME280;49858;48.956;9.076;2023-02-19T05:24:49;99298.06;;;8.01;100.00
63715;BME280;49858;48.956;9.076;2023-02-19T05:27:16;99312.84;;;8.17;100.00
63715;BME280;49858;48.956;9.076;2023-02-19T05:29:45;99311.09;;;8.04;100.00
63715;BME280;49858;48.956;9.076;2023-02-19T05:32:13;99316.09;;;8.11;100.00
63715;BME280;49858;48.956;9.076;2023-02-19T05:34:41;99333.84;;;8.05;100.00
63715;BME280;49858;48.956;9.076;2023-02-19T05:37:09;99331.41;;;8.20;100.00
63715;BME280;49858;48.956;9.076;2023-02-19T05:39:36;99339.16;;;8.10;100.00
63715;BME280;49858;48.956;9.076;2023-02-19T05:42:04;99327.25;;;8.06;100.00
63715;BME280;49858;48.956;9.076;2023-02-19T05:44:32;99336.91;;;8.12;100.00
63715;BME280;49858;48.956;9.076;2023-02-19T05:47:01;99335.94;;;8.08;100.00
63715;BME280;49858;48.956;9.076;2023-02-19T05:49:29;99329.47;;;8.04;100.00
63715;BME280;49858;48.956;9.076;2023-02-19T05:51:57;99310.31;;;8.04;100.00
63715;BME280;49858;48.956;9.076;2023-02-19T05:54:27;99321.13;;;8.00;100.00
63715;BME280;49858;48.956;9.076;2023-02-19T05:56:55;99320.97;;;8.05;100.00
63715;BME280;49858;48.956;9.076;2023-02-19T05:59:24;99327.88;;;8.20;100.00
63715;BME280;49858;48.956;9.076;2023-02-19T06:01:53;99339.13;;;8.27;100.00
63715;BME280;49858;48.956;9.076;2023-02-19T06:04:22;99328.50;;;8.17;100.00
63715;BME280;49858;48.956;9.076;2023-02-19T06:06:50;99324.78;;;8.30;100.00
63715;BME280;49858;48.956;9.076;2023-02-19T06:09:18;99317.06;;;8.15;100.00
63715;BME280;49858;48.956;9.076;2023-02-19T06:11:46;99320.78;;;8.19;100.00
63715;BME280;49858;48.956;9.076;2023-02-19T06:14:14;99329.97;;;8.14;100.00
63715;BME280;49858;48.956;9.076;2023-02-19T06:16:41;99341.06;;;8.18;100.00
63715;BME280;49858;48.956;9.076;2023-02-19T06:19:09;99327.06;;;8.28;100.00
63715;BME280;49858;48.956;9.076;2023-02-19T06:21:38;99331.59;;;8.07;100.00
63715;BME280;49858;48.956;9.076;2023-02-19T06:24:08;99339.13;;;8.27;100.00
63715;BME280;49858;48.956;9.076;2023-02-19T06:26:37;99345.28;;;8.24;100.00
63715;BME280;49858;48.956;9.076;2023-02-19T06:29:04;99344.31;;;8.20;100.00
63715;BME280;49858;48.956;9.076;2023-02-19T06:31:32;99350.91;;;8.45;100.00
63715;BME280;49858;48.956;9.076;2023-02-19T06:34:02;99345.16;;;8.76;100.00
63715;BME280;49858;48.956;9.076;2023-02-19T06:36:31;99348.31;;;8.31;100.00
63715;BME280;49858;48.956;9.076;2023-02-19T06:39:00;99351.22;;;8.43;100.00
63715;BME280;49858;48.956;9.076;2023-02-19T06:41:28;99363.78;;;8.18;100.00
63715;BME280;49858;48.956;9.076;2023-02-19T06:43:56;99359.16;;;8.19;100.00
63715;BME280;49858;48.956;9.076;2023-02-19T06:46:24;99374.75;;;8.18;100.00
63715;BME280;49858;48.956;9.076;2023-02-19T06:48:52;99370.41;;;8.26;100.00
63715;BME280;49858;48.956;9.076;2023-02-19T06:51:22;99384.28;;;8.21;100.00
63715;BME280;49858;48.956;9.076;2023-02-19T06:53:52;99365.56;;;8.23;100.00
63715;BME280;49858;48.956;9.076;2023-02-19T06:56:24;99386.38;;;8.33;100.00
63715;BME280;49858;48.956;9.076;2023-02-19T06:58:53;99405.72;;;8.19;100.00
63715;BME280;49858;48.956;9.076;2023-02-19T07:01:22;99409.59;;;8.27;100.00
63715;BME280;49858;48.956;9.076;2023-02-19T07:03:50;99400.38;;;8.31;100.00
63715;BME280;49858;48.956;9.076;2023-02-19T07:06:19;99399.59;;;8.31;100.00
63715;BME280;49858;48.956;9.076;2023-02-19T07:08:47;99407.00;;;8.22;100.00
63715;BME280;49858;48.956;9.076;2023-02-19T07:11:15;99417.97;;;8.22;100.00
63715;BME280;49858;48.956;9.076;2023-02-19T07:13:45;99429.09;;;8.08;100.00
63715;BME280;49858;48.956;9.076;2023-02-19T07:16:13;99417.66;;;8.40;100.00
63715;BME280;49858;48.956;9.076;2023-02-19T07:18:46;99429.44;;;8.15;100.00
63715;BME280;49858;48.956;9.076;2023-02-19T07:21:14;99429.44;;;8.24;100.00
63715;BME280;49858;48.956;9.076;2023-02-19T07:23:43;99441.81;;;8.12;100.00
63715;BME280;49858;48.956;9.076;2023-02-19T07:26:12;99442.78;;;8.16;100.00
63715;BME280;49858;48.956;9.076;2023-02-19T07:28:40;99435.88;;;8.10;100.00
63715;BME280;49858;48.956;9.076;2023-02-19T07:31:10;99427.31;;;8.20;100.00
63715;BME280;49858;48.956;9.076;2023-02-19T07:33:41;99429.72;;;8.22;100.00
63715;BME280;49858;48.956;9.076;2023-02-19T07:36:09;99452.31;;;8.10;100.00
63715;BME280;49858;48.956;9.076;2023-02-19T07:38:38;99453.75;;;8.16;100.00
63715;BME280;49858;48.956;9.076;2023-02-19T07:41:06;99457.63;;;8.07;100.00
63715;BME280;49858;48.956;9.076;2023-02-19T07:43:35;99433.63;;;8.21;100.00
63715;BME280;49858;48.956;9.076;2023-02-19T07:46:05;99457.47;;;8.20;100.00
63715;BME280;49858;48.956;9.076;2023-02-19T07:48:35;99455.72;;;8.42;100.00
63715;BME280;49858;48.956;9.076;2023-02-19T07:51:05;99464.91;;;8.37;100.00
63715;BME280;49858;48.956;9.076;2023-02-19T07:53:34;99466.84;;;8.45;100.00
63715;BME280;49858;48.956;9.076;2023-02-19T07:56:04;99462.59;;;8.83;100.00
63715;BME280;49858;48.956;9.076;2023-02-19T07:58:33;99477.47;;;8.56;100.00
63715;BME280;49858;48.956;9.076;2023-02-19T08:01:09;99474.91;;;8.77;100.00
63715;BME280;49858;48.956;9.076;2023-02-19T08:03:39;99475.56;;;8.48;100.00
63715;BME280;49858;48.956;9.076;2023-02-19T08:06:06;99493.78;;;8.43;100.00
63715;BME280;49858;48.956;9.076;2023-02-19T08:08:36;99470.56;;;8.58;100.00
63715;BME280;49858;48.956;9.076;2023-02-19T08:11:05;99481.06;;;8.48;100.00
63715;BME280;49858;48.956;9.076;2023-02-19T08:13:51;99476.53;;;8.43;100.00
63715;BME280;49858;48.956;9.076;2023-02-19T08:16:20;99473.47;;;8.62;100.00
63715;BME280;49858;48.956;9.076;2023-02-19T08:19:07;99476.50;;;8.34;100.00
63715;BME280;49858;48.956;9.076;2023-02-19T08:21:35;99487.13;;;8.27;100.00
63715;BME280;49858;48.956;9.076;2023-02-19T08:24:05;99457.66;;;8.24;100.00
63715;BME280;49858;48.956;9.076;2023-02-19T08:26:33;99476.03;;;8.41;100.00
63715;BME280;49858;48.956;9.076;2023-02-19T08:29:01;99477.34;;;8.43;100.00
63715;BME280;49858;48.956;9.076;2023-02-19T08:31:29;99490.84;;;8.31;100.00
63715;BME280;49858;48.956;9.076;2023-02-19T08:33:57;99481.00;;;8.30;100.00
63715;BME280;49858;48.956;9.076;2023-02-19T08:36:26;99475.75;;;8.42;100.00
63715;BME280;49858;48.956;9.076;2023-02-19T08:38:54;99496.53;;;8.43;100.00
63715;BME280;49858;48.956;9.076;2023-02-19T08:41:22;99501.03;;;8.39;100.00
63715;BME280;49858;48.956;9.076;2023-02-19T08:43:50;99477.47;;;8.56;100.00
63715;BME280;49858;48.956;9.076;2023-02-19T08:46:17;99483.63;;;8.53;100.00
63715;BME280;49858;48.956;9.076;2023-02-19T08:48:45;99475.25;;;8.58;100.00
63715;BME280;49858;48.956;9.076;2023-02-19T08:51:13;99471.84;;;8.52;100.00
63715;BME280;49858;48.956;9.076;2023-02-19T08:53:42;99477.66;;;8.68;100.00
63715;BME280;49858;48.956;9.076;2023-02-19T08:56:12;99491.53;;;8.63;100.00
63715;BME280;49858;48.956;9.076;2023-02-19T08:58:41;99493.94;;;8.82;100.00
63715;BME280;49858;48.956;9.076;2023-02-19T09:01:10;99489.22;;;9.00;100.00
63715;BME280;49858;48.956;9.076;2023-02-19T09:03:38;99507.31;;;8.83;100.00
63715;BME280;49858;48.956;9.076;2023-02-19T09:06:06;99504.03;;;9.07;100.00
63715;BME280;49858;48.956;9.076;2023-02-19T09:08:35;99500.22;;;8.91;100.00
63715;BME280;49858;48.956;9.076;2023-02-19T09:11:04;99502.16;;;8.90;100.00
63715;BME280;49858;48.956;9.076;2023-02-19T09:13:32;99506.03;;;8.89;100.00
63715;BME280;49858;48.956;9.076;2023-02-19T09:16:01;99516.34;;;8.84;100.00
63715;BME280;49858;48.956;9.076;2023-02-19T09:18:30;99514.09;;;8.77;100.00
63715;BME280;49858;48.956;9.076;2023-02-19T09:20:59;99523.59;;;8.80;100.00
63715;BME280;49858;48.956;9.076;2023-02-19T09:23:27;99522.63;;;8.84;100.00
63715;BME280;49858;48.956;9.076;2023-02-19T09:25:58;99507.81;;;8.77;100.00
63715;BME280;49858;48.956;9.076;2023-02-19T09:28:27;99530.72;;;8.72;100.00
63715;BME280;49858;48.956;9.076;2023-02-19T09:30:55;99512.81;;;8.66;100.00
63715;BME280;49858;48.956;9.076;2023-02-19T09:33:23;99522.50;;;8.72;100.00
63715;BME280;49858;48.956;9.076;2023-02-19T09:35:51;99531.38;;;8.86;100.00
63715;BME280;49858;48.956;9.076;2023-02-19T09:38:19;99533.59;;;9.02;100.00
63715;BME280;49858;48.956;9.076;2023-02-19T09:40:46;99542.97;;;9.01;100.00
63715;BME280;49858;48.956;9.076;2023-02-19T09:43:17;99548.78;;;8.99;100.00
63715;BME280;49858;48.956;9.076;2023-02-19T09:45:50;99545.66;;;9.27;100.00
63715;BME280;49858;48.956;9.076;2023-02-19T09:48:20;99545.81;;;9.30;100.00
63715;BME280;49858;48.956;9.076;2023-02-19T09:50:48;99543.59;;;9.15;100.00
63715;BME280;49858;48.956;9.076;2023-02-19T09:53:19;99548.53;;;9.39;100.00
63715;BME280;49858;48.956;9.076;2023-02-19T09:55:51;99552.88;;;9.40;100.00
63715;BME280;49858;48.956;9.076;2023-02-19T09:58:25;99553.19;;;9.47;100.00
63715;BME280;49858;48.956;9.076;2023-02-19T10:00:59;99546.72;;;9.52;100.00
63715;BME280;49858;48.956;9.076;2023-02-19T10:03:29;99545.97;;;9.72;100.00
63715;BME280;49858;48.956;9.076;2023-02-19T10:06:05;99553.94;;;9.65;100.00
63715;BME280;49858;48.956;9.076;2023-02-19T10:08:38;99545.53;;;9.70;100.00
63715;BME280;49858;48.956;9.076;2023-02-19T10:11:07;99561.22;;;9.61;100.00
63715;BME280;49858;48.956;9.076;2023-02-19T10:13:41;99553.13;;;9.64;100.00
63715;BME280;49858;48.956;9.076;2023-02-19T10:16:14;99560.75;;;9.59;100.00
63715;BME280;49858;48.956;9.076;2023-02-19T10:18:44;99560.88;;;9.71;100.00
63715;BME280;49858;48.956;9.076;2023-02-19T10:21:15;99575.31;;;9.97;100.00
63715;BME280;49858;48.956;9.076;2023-02-19T10:23:46;99575.38;;;9.80;100.00
63715;BME280;49858;48.956;9.076;2023-02-19T10:26:16;99576.13;;;9.51;100.00
63715;BME280;49858;48.956;9.076;2023-02-19T10:28:43;99581.75;;;9.55;100.00
63715;BME280;49858;48.956;9.076;2023-02-19T10:31:17;99594.06;;;9.40;100.00
63715;BME280;49858;48.956;9.076;2023-02-19T10:33:47;99584.50;;;9.55;100.00
63715;BME280;49858;48.956;9.076;2023-02-19T10:36:24;99583.88;;;9.49;100.00
63715;BME280;49858;48.956;9.076;2023-02-19T10:38:54;99591.88;;;9.80;100.00
63715;BME280;49858;48.956;9.076;2023-02-19T10:41:24;99599.50;;;9.66;100.00
63715;BME280;49858;48.956;9.076;2023-02-19T10:43:54;99591.19;;;9.83;100.00
63715;BME280;49858;48.956;9.076;2023-02-19T10:46:26;99590.00;;;9.55;100.00
63715;BME280;49858;48.956;9.076;2023-02-19T10:48:57;99599.31;;;9.71;100.00
63715;BME280;49858;48.956;9.076;2023-02-19T10:51:31;99582.53;;;9.64;100.00
63715;BME280;49858;48.956;9.076;2023-02-19T10:54:04;99602.78;;;9.51;100.00
63715;BME280;49858;48.956;9.076;2023-02-19T10:56:32;99609.28;;;9.37;100.00
63715;BME280;49858;48.956;9.076;2023-02-19T10:59:15;99612.19;;;9.24;100.00
63715;BME280;49858;48.956;9.076;2023-02-19T11:01:55;99626.91;;;8.93;100.00
63715;BME280;49858;48.956;9.076;2023-02-19T11:04:25;99627.41;;;8.95;100.00
63715;BME280;49858;48.956;9.076;2023-02-19T11:06:53;99660.75;;;8.54;100.00
63715;BME280;49858;48.956;9.076;2023-02-19T11:09:26;99648.03;;;8.66;100.00
63715;BME280;49858;48.956;9.076;2023-02-19T11:11:55;99671.28;;;8.78;100.00
63715;BME280;49858;48.956;9.076;2023-02-19T11:14:25;99669.66;;;9.03;100.00
63715;BME280;49858;48.956;9.076;2023-02-19T11:16:56;99660.00;;;9.14;100.00
63715;BME280;49858;48.956;9.076;2023-02-19T11:19:32;99628.50;;;9.37;100.00
63715;BME280;49858;48.956;9.076;2023-02-19T11:22:18;99617.13;;;9.65;100.00
63715;BME280;49858;48.956;9.076;2023-02-19T11:24:48;99612.72;;;9.72;100.00
63715;BME280;49858;48.956;9.076;2023-02-19T11:27:18;99621.78;;;9.64;100.00
63715;BME280;49858;48.956;9.076;2023-02-19T11:29:46;99606.88;;;9.83;100.00
63715;BME280;49858;48.956;9.076;2023-02-19T11:32:25;99596.59;;;9.71;100.00
63715;BME280;49858;48.956;9.076;2023-02-19T11:35:15;99599.00;;;9.64;100.00
63715;BME280;49858;48.956;9.076;2023-02-19T11:37:55;99604.03;;;9.62;100.00
63715;BME280;49858;48.956;9.076;2023-02-19T11:40:33;99601.63;;;9.60;100.00
63715;BME280;49858;48.956;9.076;2023-02-19T11:43:08;99616.31;;;9.64;100.00
63715;BME280;49858;48.956;9.076;2023-02-19T11:45:47;99612.25;;;9.79;100.00
63715;BME280;49858;48.956;9.076;2023-02-19T11:48:29;99617.41;;;9.72;100.00
63715;BME280;49858;48.956;9.076;2023-02-19T11:51:18;99626.84;;;10.01;100.00
63715;BME280;49858;48.956;9.076;2023-02-19T11:53:56;99632.56;;;9.87;100.00
63715;BME280;49858;48.956;9.076;2023-02-19T11:56:33;99629.53;;;10.27;100.00
63715;BME280;49858;48.956;9.076;2023-02-19T11:59:03;99634.91;;;10.06;100.00
63715;BME280;49858;48.956;9.076;2023-02-19T12:01:52;99641.31;;;9.80;100.00
63715;BME280;49858;48.956;9.076;2023-02-19T12:10:48;99615.88;;;9.92;100.00
63715;BME280;49858;48.956;9.076;2023-02-19T12:13:25;99620.59;;;9.91;100.00
63715;BME280;49858;48.956;9.076;2023-02-19T12:16:13;99617.13;;;10.12;100.00
63715;BME280;49858;48.956;9.076;2023-02-19T12:18:58;99596.19;;;10.28;100.00
63715;BME280;49858;48.956;9.076;2023-02-19T12:21:54;99592.16;;;10.26;100.00
63715;BME280;49858;48.956;9.076;2023-02-19T12:24:56;99587.00;;;10.24;100.00
63715;BME280;49858;48.956;9.076;2023-02-19T12:27:41;99594.72;;;10.31;100.00
63715;BME280;49858;48.956;9.076;2023-02-19T12:30:32;99593.59;;;10.23;100.00
63715;BME280;49858;48.956;9.076;2023-02-19T12:33:24;99593.78;;;10.18;100.00
63715;BME280;49858;48.956;9.076;2023-02-19T12:36:04;99597.09;;;10.62;100.00
63715;BME280;49858;48.956;9.076;2023-02-19T12:38:42;99605.00;;;10.42;100.00
63715;BME280;49858;48.956;9.076;2023-02-19T12:41:27;99594.03;;;10.04;100.00
63715;BME280;49858;48.956;9.076;2023-02-19T12:44:18;99584.06;;;10.20;100.00
63715;BME280;49858;48.956;9.076;2023-02-19T12:46:51;99587.16;;;10.19;100.00
63715;BME280;49858;48.956;9.076;2023-02-19T12:49:25;99599.16;;;10.44;100.00
63715;BME280;49858;48.956;9.076;2023-02-19T12:51:54;99605.56;;;10.27;100.00
63715;BME280;49858;48.956;9.076;2023-02-19T12:54:27;99612.47;;;10.04;100.00
63715;BME280;49858;48.956;9.076;2023-02-19T12:57:00;99599.44;;;9.83;100.00
63715;BME280;49858;48.956;9.076;2023-02-19T12:59:34;99612.81;;;10.02;100.00
63715;BME280;49858;48.956;9.076;2023-02-19T13:02:11;99624.94;;;9.37;100.00
63715;BME280;49858;48.956;9.076;2023-02-19T13:04:44;99616.16;;;9.61;100.00
63715;BME280;49858;48.956;9.076;2023-02-19T13:07:16;99614.09;;;9.49;100.00
63715;BME280;49858;48.956;9.076;2023-02-19T13:09:49;99607.63;;;9.54;100.00
63715;BME280;49858;48.956;9.076;2023-02-19T13:12:22;99605.59;;;9.80;100.00
63715;BME280;49858;48.956;9.076;2023-02-19T13:14:55;99607.34;;;9.93;100.00
63715;BME280;49858;48.956;9.076;2023-02-19T13:17:28;99595.28;;;10.07;100.00
63715;BME280;49858;48.956;9.076;2023-02-19T13:19:59;99595.22;;;9.86;100.00
63715;BME280;49858;48.956;9.076;2023-02-19T13:22:35;99602.91;;;10.01;100.00
63715;BME280;49858;48.956;9.076;2023-02-19T13:25:27;99597.81;;;9.82;100.00
63715;BME280;49858;48.956;9.076;2023-02-19T13:28:06;99600.56;;;9.82;100.00
63715;BME280;49858;48.956;9.076;2023-02-19T13:33:38;99620.59;;;9.18;100.00
63715;BME280;49858;48.956;9.076;2023-02-19T13:36:11;99628.69;;;8.80;100.00